sensor_id;sensor_type;location;lat;lon;timestamp;temperature;humidity
490;DHT22;231;48.120;11.576;2023-09-12T00:01:56;17.10;99.10
490;DHT22;231;48.120;11.576;2023-09-12T00:04:28;17.20;99.00
490;DHT22;231;48.120;11.576;2023-09-12T00:06:59;17.20;98.90
490;DHT22;231;48.120;11.576;2023-09-12T00:09:44;17.20;99.50
490;DHT22;231;48.120;11.576;2023-09-12T00:12:23;17.20;99.40
490;DHT22;231;48.120;11.576;2023-09-12T00:15:00;17.20;99.50
490;DHT22;231;48.120;11.576;2023-09-12T00:17:38;17.10;99.80
490;DHT22;231;48.120;11.576;2023-09-12T00:20:40;16.90;99.50
490;DHT22;231;48.120;11.576;2023-09-12T00:23:37;17.00;99.80
490;DHT22;231;48.120;11.576;2023-09-12T00:26:24;17.00;99.70
490;DHT22;231;48.120;11.576;2023-09-12T00:29:03;16.70;99.90
490;DHT22;231;48.120;11.576;2023-09-12T00:31:32;17.00;99.90
490;DHT22;231;48.120;11.576;2023-09-12T00:33:58;17.00;99.90
490;DHT22;231;48.120;11.576;2023-09-12T00:36:25;16.90;99.90
490;DHT22;231;48.120;11.576;2023-09-12T00:38:52;16.90;99.90
490;DHT22;231;48.120;11.576;2023-09-12T00:41:19;16.90;99.90
490;DHT22;231;48.120;11.576;2023-09-12T00:43:46;16.90;99.90
490;DHT22;231;48.120;11.576;2023-09-12T00:46:18;16.90;99.90
490;DHT22;231;48.120;11.576;2023-09-12T00:48:46;16.90;99.90
490;DHT22;231;48.120;11.576;2023-09-12T00:51:14;16.80;99.90
490;DHT22;231;48.120;11.576;2023-09-12T00:53:43;16.80;99.90
490;DHT22;231;48.120;11.576;2023-09-12T00:56:12;16.80;99.90
490;DHT22;231;48.120;11.576;2023-09-12T00:58:40;16.80;99.90
490;DHT22;231;48.120;11.576;2023-09-12T01:01:07;16.70;99.90
490;DHT22;231;48.120;11.576;2023-09-12T01:03:35;16.70;99.90
490;DHT22;231;48.120;11.576;2023-09-12T01:06:02;16.70;99.90
490;DHT22;231;48.120;11.576;2023-09-12T01:08:31;16.60;99.90
490;DHT22;231;48.120;11.576;2023-09-12T01:10:58;16.60;99.90
490;DHT22;231;48.120;11.576;2023-09-12T01:13:27;16.60;99.90
490;DHT22;231;48.120;11.576;2023-09-12T01:15:54;16.60;99.90
490;DHT22;231;48.120;11.576;2023-09-12T01:18:21;16.60;99.90
490;DHT22;231;48.120;11.576;2023-09-12T01:21:04;16.50;99.90
490;DHT22;231;48.120;11.576;2023-09-12T01:23:47;16.50;99.90
490;DHT22;231;48.120;11.576;2023-09-12T01:26:41;16.50;99.90
490;DHT22;231;48.120;11.576;2023-09-12T01:29:12;16.50;99.90
490;DHT22;231;48.120;11.576;2023-09-12T01:31:41;16.50;99.90
490;DHT22;231;48.120;11.576;2023-09-12T01:34:09;16.50;99.90
490;DHT22;231;48.120;11.576;2023-09-12T01:36:37;16.50;99.60
490;DHT22;231;48.120;11.576;2023-09-12T01:39:04;16.50;99.00
490;DHT22;231;48.120;11.576;2023-09-12T01:43:59;16.50;97.90
490;DHT22;231;48.120;11.576;2023-09-12T01:46:31;16.50;97.50
490;DHT22;231;48.120;11.576;2023-09-12T01:49:00;16.50;97.10
490;DHT22;231;48.120;11.576;2023-09-12T01:51:29;16.50;96.80
490;DHT22;231;48.120;11.576;2023-09-12T01:53:57;16.50;96.40
490;DHT22;231;48.120;11.576;2023-09-12T01:56:25;16.50;96.20
490;DHT22;231;48.120;11.576;2023-09-12T01:58:52;16.40;96.10
490;DHT22;231;48.120;11.576;2023-09-12T02:01:20;16.40;96.20
490;DHT22;231;48.120;11.576;2023-09-12T02:03:48;16.40;96.20
490;DHT22;231;48.120;11.576;2023-09-12T02:06:15;16.40;96.30
490;DHT22;231;48.120;11.576;2023-09-12T02:08:41;16.40;96.40
490;DHT22;231;48.120;11.576;2023-09-12T02:11:08;16.40;96.60
490;DHT22;231;48.120;11.576;2023-09-12T02:13:35;16.40;96.50
490;DHT22;231;48.120;11.576;2023-09-12T02:16:02;16.30;96.50
490;DHT22;231;48.120;11.576;2023-09-12T02:18:29;16.30;96.40
490;DHT22;231;48.120;11.576;2023-09-12T02:20:58;16.30;96.50
490;DHT22;231;48.120;11.576;2023-09-12T02:23:25;16.30;96.40
490;DHT22;231;48.120;11.576;2023-09-12T02:25:52;16.20;95.90
490;DHT22;231;48.120;11.576;2023-09-12T02:28:18;16.20;95.80
490;DHT22;231;48.120;11.576;2023-09-12T02:30:45;16.20;96.60
490;DHT22;231;48.120;11.576;2023-09-12T02:33:12;16.20;97.50
490;DHT22;231;48.120;11.576;2023-09-12T02:35:39;16.20;98.20
490;DHT22;231;48.120;11.576;2023-09-12T02:38:07;16.20;98.60
490;DHT22;231;48.120;11.576;2023-09-12T02:40:34;16.20;99.00
490;DHT22;231;48.120;11.576;2023-09-12T02:43:01;16.20;99.30
490;DHT22;231;48.120;11.576;2023-09-12T02:45:28;16.10;99.90
490;DHT22;231;48.120;11.576;2023-09-12T02:47:55;16.10;99.90
490;DHT22;231;48.120;11.576;2023-09-12T02:50:21;16.10;99.90
490;DHT22;231;48.120;11.576;2023-09-12T02:52:48;16.10;99.90
490;DHT22;231;48.120;11.576;2023-09-12T02:55:16;16.10;99.90
490;DHT22;231;48.120;11.576;2023-09-12T02:57:43;16.10;99.90
490;DHT22;231;48.120;11.576;2023-09-12T03:00:11;16.10;99.90
490;DHT22;231;48.120;11.576;2023-09-12T03:02:38;16.10;99.90
490;DHT22;231;48.120;11.576;2023-09-12T03:05:05;16.10;99.90
490;DHT22;231;48.120;11.576;2023-09-12T03:07:32;16.00;99.90
490;DHT22;231;48.120;11.576;2023-09-12T03:09:59;16.00;99.90
490;DHT22;231;48.120;11.576;2023-09-12T03:12:27;16.00;99.90
490;DHT22;231;48.120;11.576;2023-09-12T03:14:53;16.00;99.90
490;DHT22;231;48.120;11.576;2023-09-12T03:17:20;16.00;99.90
490;DHT22;231;48.120;11.576;2023-09-12T03:19:47;16.00;99.90
490;DHT22;231;48.120;11.576;2023-09-12T03:22:14;16.00;99.90
490;DHT22;231;48.120;11.576;2023-09-12T03:24:41;16.00;99.90
490;DHT22;231;48.120;11.576;2023-09-12T03:27:08;16.00;99.90
490;DHT22;231;48.120;11.576;2023-09-12T03:29:37;16.00;99.90
490;DHT22;231;48.120;11.576;2023-09-12T03:32:04;16.00;99.90
490;DHT22;231;48.120;11.576;2023-09-12T03:34:31;16.00;99.90
490;DHT22;231;48.120;11.576;2023-09-12T03:36:58;16.00;99.90
490;DHT22;231;48.120;11.576;2023-09-12T03:39:24;15.90;99.90
490;DHT22;231;48.120;11.576;2023-09-12T03:41:51;15.90;99.90
490;DHT22;231;48.120;11.576;2023-09-12T03:44:18;15.90;99.90
490;DHT22;231;48.120;11.576;2023-09-12T03:46:46;15.90;99.90
490;DHT22;231;48.120;11.576;2023-09-12T03:49:13;15.90;99.90
490;DHT22;231;48.120;11.576;2023-09-12T03:51:40;15.80;99.90
490;DHT22;231;48.120;11.576;2023-09-12T03:56:39;15.80;99.90
490;DHT22;231;48.120;11.576;2023-09-12T03:59:10;16.70;99.90
490;DHT22;231;48.120;11.576;2023-09-12T04:01:40;15.90;99.90
490;DHT22;231;48.120;11.576;2023-09-12T04:04:09;15.60;99.90
490;DHT22;231;48.120;11.576;2023-09-12T04:06:36;15.80;99.90
490;DHT22;231;48.120;11.576;2023-09-12T04:09:03;15.80;99.90
490;DHT22;231;48.120;11.576;2023-09-12T04:11:30;15.80;99.90
490;DHT22;231;48.120;11.576;2023-09-12T04:13:57;15.80;99.90
490;DHT22;231;48.120;11.576;2023-09-12T04:16:24;15.80;99.90
490;DHT22;231;48.120;11.576;2023-09-12T04:18:51;15.80;99.90
490;DHT22;231;48.120;11.576;2023-09-12T04:21:19;15.70;99.90
490;DHT22;231;48.120;11.576;2023-09-12T04:23:46;15.70;99.90
490;DHT22;231;48.120;11.576;2023-09-12T04:29:35;15.70;99.90
490;DHT22;231;48.120;11.576;2023-09-12T04:32:10;15.60;99.90
490;DHT22;231;48.120;11.576;2023-09-12T04:34:38;15.70;99.90
490;DHT22;231;48.120;11.576;2023-09-12T04:37:11;15.40;99.90
490;DHT22;231;48.120;11.576;2023-09-12T04:39:54;15.60;99.90
490;DHT22;231;48.120;11.576;2023-09-12T04:42:23;15.90;99.90
490;DHT22;231;48.120;11.576;2023-09-12T04:44:57;15.60;99.90
490;DHT22;231;48.120;11.576;2023-09-12T04:47:35;15.60;99.90
490;DHT22;231;48.120;11.576;2023-09-12T04:50:18;15.70;99.90
490;DHT22;231;48.120;11.576;2023-09-12T04:52:49;15.60;99.90
490;DHT22;231;48.120;11.576;2023-09-12T04:55:17;16.10;99.90
490;DHT22;231;48.120;11.576;2023-09-12T04:57:48;15.60;99.90
490;DHT22;231;48.120;11.576;2023-09-12T05:00:19;15.60;99.90
490;DHT22;231;48.120;11.576;2023-09-12T05:02:46;15.70;99.90
490;DHT22;231;48.120;11.576;2023-09-12T05:05:17;15.70;99.90
490;DHT22;231;48.120;11.576;2023-09-12T05:07:44;15.70;99.90
490;DHT22;231;48.120;11.576;2023-09-12T05:10:12;15.80;99.90
490;DHT22;231;48.120;11.576;2023-09-12T05:13:05;15.80;99.90
490;DHT22;231;48.120;11.576;2023-09-12T05:15:47;15.80;99.90
490;DHT22;231;48.120;11.576;2023-09-12T05:18:14;15.90;99.90
490;DHT22;231;48.120;11.576;2023-09-12T05:20:41;15.90;99.90
490;DHT22;231;48.120;11.576;2023-09-12T05:23:08;16.00;99.90
490;DHT22;231;48.120;11.576;2023-09-12T05:25:36;16.00;99.90
490;DHT22;231;48.120;11.576;2023-09-12T05:28:04;16.10;99.90
490;DHT22;231;48.120;11.576;2023-09-12T05:30:31;16.10;99.90
490;DHT22;231;48.120;11.576;2023-09-12T05:32:58;16.20;99.90
490;DHT22;231;48.120;11.576;2023-09-12T05:35:27;16.30;99.90
490;DHT22;231;48.120;11.576;2023-09-12T05:37:54;16.40;99.80
490;DHT22;231;48.120;11.576;2023-09-12T05:40:21;16.40;98.70
490;DHT22;231;48.120;11.576;2023-09-12T05:42:50;16.50;98.10
490;DHT22;231;48.120;11.576;2023-09-12T05:45:19;16.60;96.40
490;DHT22;231;48.120;11.576;2023-09-12T05:47:53;16.70;94.40
490;DHT22;231;48.120;11.576;2023-09-12T05:50:23;16.80;92.70
490;DHT22;231;48.120;11.576;2023-09-12T05:52:50;16.90;91.50
490;DHT22;231;48.120;11.576;2023-09-12T05:55:23;17.00;89.60
490;DHT22;231;48.120;11.576;2023-09-12T05:57:55;17.10;86.00
490;DHT22;231;48.120;11.576;2023-09-12T06:00:35;17.20;83.20
490;DHT22;231;48.120;11.576;2023-09-12T06:03:03;17.30;80.00
490;DHT22;231;48.120;11.576;2023-09-12T06:05:32;17.30;76.50
490;DHT22;231;48.120;11.576;2023-09-12T06:08:04;17.50;75.00
490;DHT22;231;48.120;11.576;2023-09-12T06:10:32;17.60;74.00
490;DHT22;231;48.120;11.576;2023-09-12T06:13:02;17.70;71.50
490;DHT22;231;48.120;11.576;2023-09-12T06:15:30;17.80;67.50
490;DHT22;231;48.120;11.576;2023-09-12T06:17:59;17.90;64.00
490;DHT22;231;48.120;11.576;2023-09-12T06:20:31;18.10;62.10
490;DHT22;231;48.120;11.576;2023-09-12T06:23:15;18.30;59.50
490;DHT22;231;48.120;11.576;2023-09-12T06:32:22;18.90;51.70
490;DHT22;231;48.120;11.576;2023-09-12T06:34:49;19.10;49.10
490;DHT22;231;48.120;11.576;2023-09-12T06:37:15;19.30;47.50
490;DHT22;231;48.120;11.576;2023-09-12T06:39:42;19.50;45.30
490;DHT22;231;48.120;11.576;2023-09-12T06:42:12;19.70;42.90
490;DHT22;231;48.120;11.576;2023-09-12T06:44:40;19.90;39.70
490;DHT22;231;48.120;11.576;2023-09-12T06:47:08;20.10;36.70
490;DHT22;231;48.120;11.576;2023-09-12T06:49:36;20.30;34.90
490;DHT22;231;48.120;11.576;2023-09-12T06:52:03;20.50;33.10
490;DHT22;231;48.120;11.576;2023-09-12T06:54:31;20.80;31.10
490;DHT22;231;48.120;11.576;2023-09-12T06:56:58;21.10;29.60
490;DHT22;231;48.120;11.576;2023-09-12T06:59:25;21.40;28.00
490;DHT22;231;48.120;11.576;2023-09-12T07:01:53;21.70;25.90
490;DHT22;231;48.120;11.576;2023-09-12T07:04:20;22.00;24.90
490;DHT22;231;48.120;11.576;2023-09-12T07:06:47;22.30;23.10
490;DHT22;231;48.120;11.576;2023-09-12T07:09:14;22.60;22.20
490;DHT22;231;48.120;11.576;2023-09-12T07:11:41;23.00;21.00
490;DHT22;231;48.120;11.576;2023-09-12T07:14:08;24.80;18.20
490;DHT22;231;48.120;11.576;2023-09-12T07:16:35;27.30;9.50
490;DHT22;231;48.120;11.576;2023-09-12T07:19:03;29.90;4.20
490;DHT22;231;48.120;11.576;2023-09-12T07:21:31;32.30;1.00
490;DHT22;231;48.120;11.576;2023-09-12T07:23:58;34.20;1.00
490;DHT22;231;48.120;11.576;2023-09-12T07:26:25;35.80;1.00
490;DHT22;231;48.120;11.576;2023-09-12T07:28:52;37.10;1.00
490;DHT22;231;48.120;11.576;2023-09-12T07:31:19;38.50;1.00
490;DHT22;231;48.120;11.576;2023-09-12T07:33:46;39.60;1.00
490;DHT22;231;48.120;11.576;2023-09-12T07:36:14;40.50;1.00
490;DHT22;231;48.120;11.576;2023-09-12T07:38:41;41.50;1.00
490;DHT22;231;48.120;11.576;2023-09-12T07:41:10;42.00;1.00
490;DHT22;231;48.120;11.576;2023-09-12T07:43:37;42.60;1.00
490;DHT22;231;48.120;11.576;2023-09-12T07:46:06;43.30;1.00
490;DHT22;231;48.120;11.576;2023-09-12T07:48:33;44.20;1.00
490;DHT22;231;48.120;11.576;2023-09-12T07:51:00;44.80;1.00
490;DHT22;231;48.120;11.576;2023-09-12T07:53:28;45.20;1.00
490;DHT22;231;48.120;11.576;2023-09-12T07:55:59;45.80;1.00
490;DHT22;231;48.120;11.576;2023-09-12T07:58:26;46.10;1.00
490;DHT22;231;48.120;11.576;2023-09-12T08:00:53;46.10;1.00
490;DHT22;231;48.120;11.576;2023-09-12T08:03:21;46.40;1.00
490;DHT22;231;48.120;11.576;2023-09-12T08:05:55;46.70;1.00
490;DHT22;231;48.120;11.576;2023-09-12T08:08:22;46.80;1.00
490;DHT22;231;48.120;11.576;2023-09-12T08:10:51;47.10;1.00
490;DHT22;231;48.120;11.576;2023-09-12T08:13:18;47.60;1.00
490;DHT22;231;48.120;11.576;2023-09-12T08:15:45;48.20;1.00
490;DHT22;231;48.120;11.576;2023-09-12T08:18:12;48.70;1.00
490;DHT22;231;48.120;11.576;2023-09-12T08:20:39;49.50;1.00
490;DHT22;231;48.120;11.576;2023-09-12T08:23:06;49.90;1.00
490;DHT22;231;48.120;11.576;2023-09-12T08:25:33;50.40;1.00
490;DHT22;231;48.120;11.576;2023-09-12T08:28:01;50.80;1.00
490;DHT22;231;48.120;11.576;2023-09-12T08:30:28;51.20;1.00
490;DHT22;231;48.120;11.576;2023-09-12T08:32:55;51.40;1.00
490;DHT22;231;48.120;11.576;2023-09-12T08:35:22;51.80;1.00
490;DHT22;231;48.120;11.576;2023-09-12T08:37:49;52.30;1.00
490;DHT22;231;48.120;11.576;2023-09-12T08:40:16;52.60;1.00
490;DHT22;231;48.120;11.576;2023-09-12T08:42:44;52.80;1.00
490;DHT22;231;48.120;11.576;2023-09-12T08:45:14;53.20;1.00
490;DHT22;231;48.120;11.576;2023-09-12T08:47:42;52.90;1.00
490;DHT22;231;48.120;11.576;2023-09-12T08:50:11;53.10;1.00
490;DHT22;231;48.120;11.576;2023-09-12T08:52:39;53.60;1.00
490;DHT22;231;48.120;11.576;2023-09-12T08:55:06;54.10;1.00
490;DHT22;231;48.120;11.576;2023-09-12T08:57:36;54.20;1.00
490;DHT22;231;48.120;11.576;2023-09-12T09:00:05;54.30;1.00
490;DHT22;231;48.120;11.576;2023-09-12T09:02:35;54.30;1.00
490;DHT22;231;48.120;11.576;2023-09-12T09:05:04;54.10;1.00
490;DHT22;231;48.120;11.576;2023-09-12T09:07:33;53.60;1.00
490;DHT22;231;48.120;11.576;2023-09-12T09:10:02;53.40;1.00
490;DHT22;231;48.120;11.576;2023-09-12T09:12:30;53.10;1.00
490;DHT22;231;48.120;11.576;2023-09-12T09:14:57;53.00;1.00
490;DHT22;231;48.120;11.576;2023-09-12T09:17:24;53.00;1.00
490;DHT22;231;48.120;11.576;2023-09-12T09:19:52;53.40;1.00
490;DHT22;231;48.120;11.576;2023-09-12T09:22:19;53.60;1.00
490;DHT22;231;48.120;11.576;2023-09-12T09:24:48;53.70;1.00
490;DHT22;231;48.120;11.576;2023-09-12T09:27:32;53.90;1.00
490;DHT22;231;48.120;11.576;2023-09-12T09:30:00;54.10;1.00
490;DHT22;231;48.120;11.576;2023-09-12T09:32:28;54.30;1.00
490;DHT22;231;48.120;11.576;2023-09-12T09:34:57;54.40;1.00
490;DHT22;231;48.120;11.576;2023-09-12T09:37:24;54.70;1.00
490;DHT22;231;48.120;11.576;2023-09-12T09:39:51;54.80;1.00
490;DHT22;231;48.120;11.576;2023-09-12T09:42:18;54.90;1.00
490;DHT22;231;48.120;11.576;2023-09-12T09:44:45;54.90;1.00
490;DHT22;231;48.120;11.576;2023-09-12T09:47:12;54.90;1.00
490;DHT22;231;48.120;11.576;2023-09-12T09:49:39;55.10;1.00
490;DHT22;231;48.120;11.576;2023-09-12T09:52:07;54.90;1.00
490;DHT22;231;48.120;11.576;2023-09-12T09:54:34;54.80;1.00
490;DHT22;231;48.120;11.576;2023-09-12T09:57:01;54.30;1.00
490;DHT22;231;48.120;11.576;2023-09-12T09:59:28;53.50;1.00
490;DHT22;231;48.120;11.576;2023-09-12T10:01:57;52.50;1.00
490;DHT22;231;48.120;11.576;2023-09-12T10:04:26;51.60;1.00
490;DHT22;231;48.120;11.576;2023-09-12T10:06:55;51.30;1.00
490;DHT22;231;48.120;11.576;2023-09-12T10:09:26;51.30;1.00
490;DHT22;231;48.120;11.576;2023-09-12T10:11:55;51.30;1.00
490;DHT22;231;48.120;11.576;2023-09-12T10:14:22;50.50;1.00
490;DHT22;231;48.120;11.576;2023-09-12T10:16:50;49.60;1.00
490;DHT22;231;48.120;11.576;2023-09-12T10:19:23;49.10;1.00
490;DHT22;231;48.120;11.576;2023-09-12T10:21:57;48.70;1.00
490;DHT22;231;48.120;11.576;2023-09-12T10:24:27;48.80;1.00
490;DHT22;231;48.120;11.576;2023-09-12T10:26:55;49.00;1.00
490;DHT22;231;48.120;11.576;2023-09-12T10:29:22;49.30;1.00
490;DHT22;231;48.120;11.576;2023-09-12T10:31:49;49.30;1.00
490;DHT22;231;48.120;11.576;2023-09-12T10:34:16;49.20;1.00
490;DHT22;231;48.120;11.576;2023-09-12T10:36:45;49.10;1.00
490;DHT22;231;48.120;11.576;2023-09-12T10:39:14;49.10;1.00
490;DHT22;231;48.120;11.576;2023-09-12T10:41:42;49.00;1.00
490;DHT22;231;48.120;11.576;2023-09-12T10:44:10;48.80;1.00
490;DHT22;231;48.120;11.576;2023-09-12T10:46:39;48.60;1.00
490;DHT22;231;48.120;11.576;2023-09-12T10:49:07;48.40;1.00
490;DHT22;231;48.120;11.576;2023-09-12T10:51:38;48.10;1.00
490;DHT22;231;48.120;11.576;2023-09-12T10:54:06;47.80;1.00
490;DHT22;231;48.120;11.576;2023-09-12T10:56:34;47.70;1.00
490;DHT22;231;48.120;11.576;2023-09-12T10:59:12;47.40;1.00
490;DHT22;231;48.120;11.576;2023-09-12T11:01:41;47.40;1.00
490;DHT22;231;48.120;11.576;2023-09-12T11:04:30;47.90;1.00
490;DHT22;231;48.120;11.576;2023-09-12T11:06:59;48.70;1.00
490;DHT22;231;48.120;11.576;2023-09-12T11:09:26;49.40;1.00
490;DHT22;231;48.120;11.576;2023-09-12T11:11:59;49.80;1.00
490;DHT22;231;48.120;11.576;2023-09-12T11:14:29;49.90;1.00
490;DHT22;231;48.120;11.576;2023-09-12T11:17:22;50.00;1.00
490;DHT22;231;48.120;11.576;2023-09-12T11:19:50;49.90;1.00
490;DHT22;231;48.120;11.576;2023-09-12T11:22:25;49.80;1.00
490;DHT22;231;48.120;11.576;2023-09-12T11:24:52;49.50;1.00
490;DHT22;231;48.120;11.576;2023-09-12T11:27:21;49.20;1.00
490;DHT22;231;48.120;11.576;2023-09-12T11:29:49;48.50;1.00
490;DHT22;231;48.120;11.576;2023-09-12T11:32:29;47.70;1.00
490;DHT22;231;48.120;11.576;2023-09-12T11:34:56;46.80;1.00
490;DHT22;231;48.120;11.576;2023-09-12T11:37:24;46.00;1.00
490;DHT22;231;48.120;11.576;2023-09-12T11:39:51;45.40;1.00
490;DHT22;231;48.120;11.576;2023-09-12T11:42:18;45.10;1.00
490;DHT22;231;48.120;11.576;2023-09-12T11:44:46;44.70;1.00
490;DHT22;231;48.120;11.576;2023-09-12T11:47:16;44.50;1.00
490;DHT22;231;48.120;11.576;2023-09-12T11:49:43;44.20;1.00
490;DHT22;231;48.120;11.576;2023-09-12T11:52:11;43.50;1.00
490;DHT22;231;48.120;11.576;2023-09-12T11:54:39;42.60;1.00
490;DHT22;231;48.120;11.576;2023-09-12T11:57:08;41.90;1.00
490;DHT22;231;48.120;11.576;2023-09-12T11:59:37;41.40;1.00
490;DHT22;231;48.120;11.576;2023-09-12T12:02:06;41.00;1.00
490;DHT22;231;48.120;11.576;2023-09-12T12:04:36;41.30;1.00
490;DHT22;231;48.120;11.576;2023-09-12T12:07:03;42.10;1.00
490;DHT22;231;48.120;11.576;2023-09-12T12:09:31;42.90;1.00
490;DHT22;231;48.120;11.576;2023-09-12T12:12:04;43.70;1.00
490;DHT22;231;48.120;11.576;2023-09-12T12:14:34;44.30;1.00
490;DHT22;231;48.120;11.576;2023-09-12T12:17:05;44.30;1.00
490;DHT22;231;48.120;11.576;2023-09-12T12:19:33;44.40;1.00
490;DHT22;231;48.120;11.576;2023-09-12T12:22:01;44.30;1.00
490;DHT22;231;48.120;11.576;2023-09-12T12:24:36;44.20;1.00
490;DHT22;231;48.120;11.576;2023-09-12T12:27:04;44.20;1.00
490;DHT22;231;48.120;11.576;2023-09-12T12:29:31;44.40;1.00
490;DHT22;231;48.120;11.576;2023-09-12T12:31:59;44.80;1.00
490;DHT22;231;48.120;11.576;2023-09-12T12:34:27;45.30;1.00
490;DHT22;231;48.120;11.576;2023-09-12T12:36:54;45.80;1.00
490;DHT22;231;48.120;11.576;2023-09-12T12:39:22;46.60;1.00
490;DHT22;231;48.120;11.576;2023-09-12T12:41:52;47.40;1.00
490;DHT22;231;48.120;11.576;2023-09-12T12:44:19;47.20;1.00
490;DHT22;231;48.120;11.576;2023-09-12T12:46:50;46.10;1.00
490;DHT22;231;48.120;11.576;2023-09-12T12:49:17;44.80;1.00
490;DHT22;231;48.120;11.576;2023-09-12T12:51:45;43.30;1.00
490;DHT22;231;48.120;11.576;2023-09-12T12:54:12;41.80;1.00
490;DHT22;231;48.120;11.576;2023-09-12T12:56:44;40.20;1.00
490;DHT22;231;48.120;11.576;2023-09-12T12:59:11;38.60;1.00
490;DHT22;231;48.120;11.576;2023-09-12T13:01:38;37.30;1.00
490;DHT22;231;48.120;11.576;2023-09-12T13:04:06;36.00;1.00
490;DHT22;231;48.120;11.576;2023-09-12T13:06:33;35.00;1.00
490;DHT22;231;48.120;11.576;2023-09-12T13:09:02;34.20;1.00
490;DHT22;231;48.120;11.576;2023-09-12T13:11:31;33.70;1.00
490;DHT22;231;48.120;11.576;2023-09-12T13:14:01;33.30;1.00
490;DHT22;231;48.120;11.576;2023-09-12T13:16:34;33.00;1.00
490;DHT22;231;48.120;11.576;2023-09-12T13:19:01;32.70;1.00
490;DHT22;231;48.120;11.576;2023-09-12T13:21:28;32.30;1.00
490;DHT22;231;48.120;11.576;2023-09-12T13:23:54;32.10;1.00
490;DHT22;231;48.120;11.576;2023-09-12T13:26:21;31.90;1.00
490;DHT22;231;48.120;11.576;2023-09-12T13:28:48;31.70;1.00
490;DHT22;231;48.120;11.576;2023-09-12T13:31:16;31.60;1.00
490;DHT22;231;48.120;11.576;2023-09-12T13:33:43;31.50;1.00
490;DHT22;231;48.120;11.576;2023-09-12T13:36:10;31.30;1.00
490;DHT22;231;48.120;11.576;2023-09-12T13:38:37;31.30;1.00
490;DHT22;231;48.120;11.576;2023-09-12T13:41:03;31.20;1.00
490;DHT22;231;48.120;11.576;2023-09-12T13:43:30;31.20;1.00
490;DHT22;231;48.120;11.576;2023-09-12T13:45:57;31.20;1.00
490;DHT22;231;48.120;11.576;2023-09-12T13:48:25;31.20;1.00
490;DHT22;231;48.120;11.576;2023-09-12T13:50:52;31.30;1.00
490;DHT22;231;48.120;11.576;2023-09-12T13:53:19;31.40;1.00
490;DHT22;231;48.120;11.576;2023-09-12T13:55:46;31.50;1.00
490;DHT22;231;48.120;11.576;2023-09-12T13:58:12;31.50;1.00
490;DHT22;231;48.120;11.576;2023-09-12T14:00:39;31.50;1.00
490;DHT22;231;48.120;11.576;2023-09-12T14:03:06;31.40;1.00
490;DHT22;231;48.120;11.576;2023-09-12T14:05:34;31.50;1.00
490;DHT22;231;48.120;11.576;2023-09-12T14:08:01;31.50;1.00
490;DHT22;231;48.120;11.576;2023-09-12T14:10:28;31.60;1.00
490;DHT22;231;48.120;11.576;2023-09-12T14:12:54;31.60;1.00
490;DHT22;231;48.120;11.576;2023-09-12T14:15:21;31.60;1.00
490;DHT22;231;48.120;11.576;2023-09-12T14:17:48;31.60;1.00
490;DHT22;231;48.120;11.576;2023-09-12T14:20:15;31.60;1.00
490;DHT22;231;48.120;11.576;2023-09-12T14:22:45;31.60;1.00
490;DHT22;231;48.120;11.576;2023-09-12T14:25:12;31.60;1.00
490;DHT22;231;48.120;11.576;2023-09-12T14:27:41;31.50;1.00
490;DHT22;231;48.120;11.576;2023-09-12T14:30:10;31.40;1.00
490;DHT22;231;48.120;11.576;2023-09-12T14:32:37;31.40;1.00
490;DHT22;231;48.120;11.576;2023-09-12T14:35:04;31.40;1.00
490;DHT22;231;48.120;11.576;2023-09-12T14:37:31;31.30;1.00
490;DHT22;231;48.120;11.576;2023-09-12T14:40:02;31.30;1.00
490;DHT22;231;48.120;11.576;2023-09-12T14:42:30;31.10;1.00
490;DHT22;231;48.120;11.576;2023-09-12T14:44:57;30.90;1.00
490;DHT22;231;48.120;11.576;2023-09-12T14:47:23;30.90;1.00
490;DHT22;231;48.120;11.576;2023-09-12T14:49:53;30.80;1.00
490;DHT22;231;48.120;11.576;2023-09-12T14:52:20;30.80;1.00
490;DHT22;231;48.120;11.576;2023-09-12T14:54:47;30.90;1.00
490;DHT22;231;48.120;11.576;2023-09-12T14:57:15;30.90;1.00
490;DHT22;231;48.120;11.576;2023-09-12T14:59:42;30.90;1.00
490;DHT22;231;48.120;11.576;2023-09-12T15:02:09;30.90;1.00
490;DHT22;231;48.120;11.576;2023-09-12T15:04:35;30.80;1.00
490;DHT22;231;48.120;11.576;2023-09-12T15:07:02;30.80;1.00
490;DHT22;231;48.120;11.576;2023-09-12T15:09:29;30.80;1.00
490;DHT22;231;48.120;11.576;2023-09-12T15:11:56;30.70;1.00
490;DHT22;231;48.120;11.576;2023-09-12T15:14:24;30.60;1.00
490;DHT22;231;48.120;11.576;2023-09-12T15:16:51;30.50;1.00
490;DHT22;231;48.120;11.576;2023-09-12T15:19:17;30.40;1.00
490;DHT22;231;48.120;11.576;2023-09-12T15:21:44;30.40;1.00
490;DHT22;231;48.120;11.576;2023-09-12T15:24:11;30.30;1.00
490;DHT22;231;48.120;11.576;2023-09-12T15:26:38;30.20;1.00
490;DHT22;231;48.120;11.576;2023-09-12T15:29:05;30.10;1.00
490;DHT22;231;48.120;11.576;2023-09-12T15:31:34;30.00;1.00
490;DHT22;231;48.120;11.576;2023-09-12T15:34:01;30.00;1.00
490;DHT22;231;48.120;11.576;2023-09-12T15:36:28;29.90;1.00
490;DHT22;231;48.120;11.576;2023-09-12T15:38:55;29.70;1.00
490;DHT22;231;48.120;11.576;2023-09-12T15:41:23;29.50;1.00
490;DHT22;231;48.120;11.576;2023-09-12T15:43:50;29.30;1.00
490;DHT22;231;48.120;11.576;2023-09-12T15:46:17;29.20;1.00
490;DHT22;231;48.120;11.576;2023-09-12T15:48:45;29.20;1.00
490;DHT22;231;48.120;11.576;2023-09-12T15:51:12;29.00;1.00
490;DHT22;231;48.120;11.576;2023-09-12T15:53:39;29.00;1.00
490;DHT22;231;48.120;11.576;2023-09-12T15:56:05;28.90;1.00
490;DHT22;231;48.120;11.576;2023-09-12T15:58:32;28.70;1.00
490;DHT22;231;48.120;11.576;2023-09-12T16:00:59;28.50;1.00
490;DHT22;231;48.120;11.576;2023-09-12T16:03:28;28.40;1.00
490;DHT22;231;48.120;11.576;2023-09-12T16:05:56;28.20;1.00
490;DHT22;231;48.120;11.576;2023-09-12T16:08:23;28.00;1.00
490;DHT22;231;48.120;11.576;2023-09-12T16:10:50;27.90;1.00
490;DHT22;231;48.120;11.576;2023-09-12T16:13:18;27.70;1.00
490;DHT22;231;48.120;11.576;2023-09-12T16:15:45;27.60;1.00
490;DHT22;231;48.120;11.576;2023-09-12T16:18:12;27.50;1.00
490;DHT22;231;48.120;11.576;2023-09-12T16:20:39;27.40;1.00
490;DHT22;231;48.120;11.576;2023-09-12T16:23:07;27.30;1.00
490;DHT22;231;48.120;11.576;2023-09-12T16:25:34;27.30;1.00
490;DHT22;231;48.120;11.576;2023-09-12T16:28:01;27.30;1.00
490;DHT22;231;48.120;11.576;2023-09-12T16:30:28;27.20;1.00
490;DHT22;231;48.120;11.576;2023-09-12T16:32:55;27.10;1.00
490;DHT22;231;48.120;11.576;2023-09-12T16:35:22;27.10;1.00
490;DHT22;231;48.120;11.576;2023-09-12T16:37:50;27.10;1.00
490;DHT22;231;48.120;11.576;2023-09-12T16:40:19;27.00;1.00
490;DHT22;231;48.120;11.576;2023-09-12T16:42:45;27.00;1.00
490;DHT22;231;48.120;11.576;2023-09-12T16:45:12;26.80;1.00
490;DHT22;231;48.120;11.576;2023-09-12T16:47:39;26.80;1.00
490;DHT22;231;48.120;11.576;2023-09-12T16:50:07;26.70;1.30
490;DHT22;231;48.120;11.576;2023-09-12T16:52:35;26.70;1.00